Rehoboth, Massachusetts
Current Conditions -  °F | °C
As of 3:51 PM on Tuesday 21 Oct 2014 (Local Time) from KPVD Reporting Station
Broken Clouds Broken Clouds  
Wind Chill: 63°   Ceiling: 13000
Heat Index: 63°   Visibility: 10mi
Dew Point: 54°   Wind: 8mph
Humidity: 72%   Direction: 160°SSE
Pressure: 29.89"   Gusts: NA
Location:  41.84°N, 71.25°W
Report Text: KPVD 211951Z 16007KT 10SM FEW018 FEW049 SCT085 BKN130 17/12 A2989 RMK AO2 SLP122 T01720122
Loading
Personal Weather Stations






























Interactive Weather Map
Tropical Storm Tracking
New forecast layout! Learn more

10-Day Weather Forecast

Advertisements
Track Severe Weather on mobile